sensor_id;sensor_type;location;lat;lon;timestamp;pressure;altitude;pressure_sealevel;temperature;humidity
10897;BME280;5501;51.176;6.470;2023-06-24T00:05:00;101881.75;;;20.44;96.97
10897;BME280;5501;51.176;6.470;2023-06-24T00:10:02;101883.16;;;20.34;96.46
10897;BME280;5501;51.176;6.470;2023-06-24T00:15:06;101885.38;;;20.26;97.89
10897;BME280;5501;51.176;6.470;2023-06-24T00:20:07;101891.78;;;20.05;99.34
10897;BME280;5501;51.176;6.470;2023-06-24T00:25:11;101891.56;;;20.09;98.08
10897;BME280;5501;51.176;6.470;2023-06-24T00:30:13;101870.78;;;19.92;98.92
10897;BME280;5501;51.176;6.470;2023-06-24T00:35:15;101877.41;;;19.85;99.57
10897;BME280;5501;51.176;6.470;2023-06-24T00:40:16;101871.50;;;19.77;100.00
10897;BME280;5501;51.176;6.470;2023-06-24T00:45:19;101870.78;;;19.92;100.00
10897;BME280;5501;51.176;6.470;2023-06-24T00:50:22;101883.44;;;19.90;100.00
10897;BME280;5501;51.176;6.470;2023-06-24T00:55:25;101877.72;;;19.98;100.00
10897;BME280;5501;51.176;6.470;2023-06-24T01:00:26;101879.25;;;19.85;100.00
10897;BME280;5501;51.176;6.470;2023-06-24T01:05:28;101882.72;;;19.68;100.00
10897;BME280;5501;51.176;6.470;2023-06-24T01:10:31;101878.84;;;19.55;100.00
10897;BME280;5501;51.176;6.470;2023-06-24T01:15:32;101878.69;;;19.58;100.00
10897;BME280;5501;51.176;6.470;2023-06-24T01:36:29;101873.81;;;19.66;100.00
10897;BME280;5501;51.176;6.470;2023-06-24T01:41:43;101873.09;;;19.81;100.00
10897;BME280;5501;51.176;6.470;2023-06-24T01:46:48;101865.81;;;19.83;100.00
10897;BME280;5501;51.176;6.470;2023-06-24T01:51:55;101860.75;;;19.94;100.00
10897;BME280;5501;51.176;6.470;2023-06-24T01:56:58;101850.69;;;19.98;100.00
10897;BME280;5501;51.176;6.470;2023-06-24T02:02:03;101844.97;;;20.04;100.00
10897;BME280;5501;51.176;6.470;2023-06-24T02:07:06;101843.03;;;20.08;100.00
10897;BME280;5501;51.176;6.470;2023-06-24T02:12:12;101840.19;;;20.11;100.00
10897;BME280;5501;51.176;6.470;2023-06-24T02:17:14;101840.31;;;20.08;100.00
10897;BME280;5501;51.176;6.470;2023-06-24T02:22:17;101843.63;;;19.96;100.00
10897;BME280;5501;51.176;6.470;2023-06-24T02:27:19;101858.63;;;19.82;100.00
10897;BME280;5501;51.176;6.470;2023-06-24T02:32:21;101851.94;;;19.72;100.00
10897;BME280;5501;51.176;6.470;2023-06-24T02:37:23;101854.13;;;19.64;100.00
10897;BME280;5501;51.176;6.470;2023-06-24T02:42:24;101863.44;;;19.57;100.00
10897;BME280;5501;51.176;6.470;2023-06-24T02:47:26;101850.03;;;19.56;100.00
10897;BME280;5501;51.176;6.470;2023-06-24T02:52:29;101850.78;;;19.59;100.00
10897;BME280;5501;51.176;6.470;2023-06-24T02:57:31;101858.22;;;19.73;100.00
10897;BME280;5501;51.176;6.470;2023-06-24T03:02:54;101862.69;;;19.35;100.00
10897;BME280;5501;51.176;6.470;2023-06-24T03:07:56;101867.78;;;19.41;100.00
10897;BME280;5501;51.176;6.470;2023-06-24T03:12:58;101867.66;;;19.44;100.00
10897;BME280;5501;51.176;6.470;2023-06-24T03:18:17;101863.28;;;19.42;100.00
10897;BME280;5501;51.176;6.470;2023-06-24T03:23:21;101865.09;;;19.41;100.00
10897;BME280;5501;51.176;6.470;2023-06-24T03:28:23;101868.88;;;19.37;100.00
10897;BME280;5501;51.176;6.470;2023-06-24T03:33:33;101876.69;;;19.25;100.00
10897;BME280;5501;51.176;6.470;2023-06-24T03:38:35;101871.59;;;19.37;100.00
10897;BME280;5501;51.176;6.470;2023-06-24T03:43:36;101878.97;;;19.52;100.00
10897;BME280;5501;51.176;6.470;2023-06-24T03:48:39;101872.63;;;19.53;100.00
10897;BME280;5501;51.176;6.470;2023-06-24T03:53:41;101886.56;;;19.44;100.00
10897;BME280;5501;51.176;6.470;2023-06-24T03:58:43;101887.09;;;19.52;100.00
10897;BME280;5501;51.176;6.470;2023-06-24T04:03:45;101891.78;;;19.67;100.00
10897;BME280;5501;51.176;6.470;2023-06-24T04:08:47;101889.88;;;19.69;99.90
10897;BME280;5501;51.176;6.470;2023-06-24T04:13:50;101888.91;;;19.70;99.74
10897;BME280;5501;51.176;6.470;2023-06-24T04:18:51;101898.63;;;19.74;99.74
10897;BME280;5501;51.176;6.470;2023-06-24T04:23:53;101891.22;;;19.79;99.28
10897;BME280;5501;51.176;6.470;2023-06-24T04:28:55;101895.00;;;19.75;98.97
10897;BME280;5501;51.176;6.470;2023-06-24T04:33:57;101901.72;;;19.85;98.96
10897;BME280;5501;51.176;6.470;2023-06-24T04:38:58;101899.50;;;19.93;98.72
10897;BME280;5501;51.176;6.470;2023-06-24T04:44:00;101909.53;;;19.92;99.24
10897;BME280;5501;51.176;6.470;2023-06-24T04:49:01;101897.91;;;19.89;98.50
10897;BME280;5501;51.176;6.470;2023-06-24T04:54:03;101903.25;;;19.91;99.02
10897;BME280;5501;51.176;6.470;2023-06-24T04:59:05;101909.28;;;19.77;98.93
10897;BME280;5501;51.176;6.470;2023-06-24T05:04:06;101895.53;;;19.83;99.57
10897;BME280;5501;51.176;6.470;2023-06-24T05:09:08;101897.31;;;19.83;99.68
10897;BME280;5501;51.176;6.470;2023-06-24T05:14:11;101895.34;;;20.05;98.14
10897;BME280;5501;51.176;6.470;2023-06-24T05:19:13;101904.66;;;20.18;95.90
10897;BME280;5501;51.176;6.470;2023-06-24T05:24:14;101895.56;;;20.38;92.65
10897;BME280;5501;51.176;6.470;2023-06-24T05:29:17;101902.72;;;20.39;91.05
10897;BME280;5501;51.176;6.470;2023-06-24T05:34:18;101898.31;;;20.55;87.82
10897;BME280;5501;51.176;6.470;2023-06-24T05:39:20;101905.03;;;20.65;86.63
10897;BME280;5501;51.176;6.470;2023-06-24T05:44:22;101905.81;;;20.67;84.44
10897;BME280;5501;51.176;6.470;2023-06-24T05:49:24;101914.47;;;20.73;83.51
10897;BME280;5501;51.176;6.470;2023-06-24T05:54:26;101925.13;;;20.95;83.33
10897;BME280;5501;51.176;6.470;2023-06-24T05:59:27;101915.56;;;21.05;82.25
10897;BME280;5501;51.176;6.470;2023-06-24T06:04:29;101926.72;;;21.16;80.42
10897;BME280;5501;51.176;6.470;2023-06-24T06:09:30;101921.78;;;21.24;79.90
10897;BME280;5501;51.176;6.470;2023-06-24T06:14:32;101934.66;;;21.36;77.73
10897;BME280;5501;51.176;6.470;2023-06-24T06:19:33;101931.72;;;21.06;77.83
10897;BME280;5501;51.176;6.470;2023-06-24T06:24:35;101936.88;;;21.28;77.32
10897;BME280;5501;51.176;6.470;2023-06-24T06:29:36;101938.25;;;21.36;75.56
10897;BME280;5501;51.176;6.470;2023-06-24T06:34:38;101944.06;;;21.46;75.76
10897;BME280;5501;51.176;6.470;2023-06-24T06:39:39;101934.63;;;21.53;74.24
10897;BME280;5501;51.176;6.470;2023-06-24T06:44:41;101948.56;;;21.62;73.28
10897;BME280;5501;51.176;6.470;2023-06-24T06:49:43;101947.44;;;21.66;73.57
10897;BME280;5501;51.176;6.470;2023-06-24T06:54:44;101944.78;;;21.65;71.39
10897;BME280;5501;51.176;6.470;2023-06-24T06:59:46;101952.44;;;21.91;69.94
10897;BME280;5501;51.176;6.470;2023-06-24T07:04:47;101954.50;;;21.69;71.47
10897;BME280;5501;51.176;6.470;2023-06-24T07:09:49;101956.97;;;22.06;70.41
10897;BME280;5501;51.176;6.470;2023-06-24T07:14:50;101960.50;;;22.23;69.71
10897;BME280;5501;51.176;6.470;2023-06-24T07:19:52;101960.34;;;22.26;68.99
10897;BME280;5501;51.176;6.470;2023-06-24T07:24:54;101950.53;;;22.39;70.14
10897;BME280;5501;51.176;6.470;2023-06-24T07:29:57;101961.78;;;22.49;69.30
10897;BME280;5501;51.176;6.470;2023-06-24T07:34:59;101962.53;;;22.82;67.62
10897;BME280;5501;51.176;6.470;2023-06-24T07:40:01;101970.13;;;22.91;67.35
10897;BME280;5501;51.176;6.470;2023-06-24T07:45:02;101966.44;;;23.07;67.60
10897;BME280;5501;51.176;6.470;2023-06-24T07:50:04;101963.50;;;23.26;66.38
10897;BME280;5501;51.176;6.470;2023-06-24T07:55:07;101956.75;;;23.33;63.77
10897;BME280;5501;51.176;6.470;2023-06-24T08:00:09;101958.16;;;23.24;67.00
10897;BME280;5501;51.176;6.470;2023-06-24T08:05:16;101963.19;;;23.46;66.50
10897;BME280;5501;51.176;6.470;2023-06-24T08:10:20;101964.34;;;23.56;66.11
10897;BME280;5501;51.176;6.470;2023-06-24T08:15:21;101972.13;;;23.76;65.78
10897;BME280;5501;51.176;6.470;2023-06-24T08:20:23;101973.84;;;23.92;67.24
10897;BME280;5501;51.176;6.470;2023-06-24T08:25:25;101966.03;;;23.72;66.21
10897;BME280;5501;51.176;6.470;2023-06-24T08:30:27;101964.03;;;24.04;66.12
10897;BME280;5501;51.176;6.470;2023-06-24T08:35:30;101955.75;;;24.19;64.16
10897;BME280;5501;51.176;6.470;2023-06-24T08:40:31;101951.94;;;24.22;65.23
10897;BME280;5501;51.176;6.470;2023-06-24T08:45:33;101951.53;;;24.42;64.72
10897;BME280;5501;51.176;6.470;2023-06-24T08:50:39;101943.41;;;24.28;66.57
10897;BME280;5501;51.176;6.470;2023-06-24T08:55:43;101939.63;;;24.57;65.59
10897;BME280;5501;51.176;6.470;2023-06-24T09:00:45;101940.72;;;24.55;64.33
10897;BME280;5501;51.176;6.470;2023-06-24T09:05:47;101942.91;;;24.76;62.07
10897;BME280;5501;51.176;6.470;2023-06-24T09:10:53;101928.75;;;24.57;59.70
10897;BME280;5501;51.176;6.470;2023-06-24T09:15:58;101935.22;;;24.95;62.14
10897;BME280;5501;51.176;6.470;2023-06-24T09:21:01;101935.47;;;24.92;61.70
10897;BME280;5501;51.176;6.470;2023-06-24T09:26:03;101935.88;;;25.25;61.71
10897;BME280;5501;51.176;6.470;2023-06-24T09:31:09;101927.41;;;25.42;57.04
10897;BME280;5501;51.176;6.470;2023-06-24T09:36:20;101927.22;;;25.45;56.73
10897;BME280;5501;51.176;6.470;2023-06-24T09:41:24;101916.19;;;25.59;56.29
10897;BME280;5501;51.176;6.470;2023-06-24T09:46:27;101912.72;;;25.82;53.84
10897;BME280;5501;51.176;6.470;2023-06-24T09:51:32;101905.31;;;25.97;50.16
10897;BME280;5501;51.176;6.470;2023-06-24T09:56:36;101904.50;;;26.07;52.19
10897;BME280;5501;51.176;6.470;2023-06-24T10:01:40;101879.16;;;26.30;47.45
10897;BME280;5501;51.176;6.470;2023-06-24T10:06:42;101881.50;;;26.71;45.63
10897;BME280;5501;51.176;6.470;2023-06-24T10:11:44;101882.63;;;26.56;45.37
10897;BME280;5501;51.176;6.470;2023-06-24T10:16:46;101884.91;;;26.85;44.93
10897;BME280;5501;51.176;6.470;2023-06-24T10:21:51;101883.25;;;27.06;45.50
10897;BME280;5501;51.176;6.470;2023-06-24T10:26:52;101873.63;;;26.90;44.86
10897;BME280;5501;51.176;6.470;2023-06-24T10:31:54;101880.53;;;27.17;40.87
10897;BME280;5501;51.176;6.470;2023-06-24T10:42:36;101864.13;;;27.06;36.96
10897;BME280;5501;51.176;6.470;2023-06-24T10:47:39;101847.84;;;26.70;40.21
10897;BME280;5501;51.176;6.470;2023-06-24T10:52:43;101839.66;;;26.70;39.51
10897;BME280;5501;51.176;6.470;2023-06-24T10:57:46;101839.47;;;26.84;38.29
10897;BME280;5501;51.176;6.470;2023-06-24T11:02:48;101842.72;;;26.89;32.22
10897;BME280;5501;51.176;6.470;2023-06-24T11:07:49;101842.31;;;26.83;34.30
10897;BME280;5501;51.176;6.470;2023-06-24T11:12:52;101836.06;;;27.04;33.47
10897;BME280;5501;51.176;6.470;2023-06-24T11:17:53;101832.03;;;26.86;33.70
10897;BME280;5501;51.176;6.470;2023-06-24T11:22:55;101827.56;;;27.20;33.07
10897;BME280;5501;51.176;6.470;2023-06-24T11:27:56;101831.16;;;27.31;33.04
10897;BME280;5501;51.176;6.470;2023-06-24T11:32:58;101817.69;;;27.06;34.14
10897;BME280;5501;51.176;6.470;2023-06-24T11:38:00;101812.66;;;27.24;34.21
10897;BME280;5501;51.176;6.470;2023-06-24T11:43:02;101812.16;;;27.41;35.41
10897;BME280;5501;51.176;6.470;2023-06-24T11:48:04;101800.28;;;27.42;34.63
10897;BME280;5501;51.176;6.470;2023-06-24T11:53:09;101806.09;;;27.48;36.70
10897;BME280;5501;51.176;6.470;2023-06-24T11:58:19;101803.22;;;27.61;35.53
10897;BME280;5501;51.176;6.470;2023-06-24T12:03:22;101807.69;;;27.62;35.25
10897;BME280;5501;51.176;6.470;2023-06-24T12:08:24;101801.13;;;27.64;32.49
10897;BME280;5501;51.176;6.470;2023-06-24T12:13:27;101795.16;;;27.59;33.78
10897;BME280;5501;51.176;6.470;2023-06-24T12:18:29;101780.72;;;27.90;33.50
10897;BME280;5501;51.176;6.470;2023-06-24T12:23:30;101784.53;;;28.10;34.38
10897;BME280;5501;51.176;6.470;2023-06-24T12:28:32;101780.97;;;27.98;34.16
10897;BME280;5501;51.176;6.470;2023-06-24T12:33:33;101784.19;;;28.03;33.99
10897;BME280;5501;51.176;6.470;2023-06-24T12:38:35;101773.75;;;27.75;32.38
10897;BME280;5501;51.176;6.470;2023-06-24T12:43:37;101771.75;;;27.99;33.30
10897;BME280;5501;51.176;6.470;2023-06-24T12:48:38;101772.06;;;27.85;32.09
10897;BME280;5501;51.176;6.470;2023-06-24T12:53:40;101766.47;;;28.18;31.96
10897;BME280;5501;51.176;6.470;2023-06-24T12:58:41;101758.28;;;28.18;32.39
10897;BME280;5501;51.176;6.470;2023-06-24T13:03:43;101760.09;;;28.29;31.45
10897;BME280;5501;51.176;6.470;2023-06-24T13:08:45;101753.97;;;28.36;32.47
10897;BME280;5501;51.176;6.470;2023-06-24T13:13:46;101749.81;;;28.53;30.71
10897;BME280;5501;51.176;6.470;2023-06-24T13:18:48;101755.72;;;28.38;30.19
10897;BME280;5501;51.176;6.470;2023-06-24T13:23:50;101742.94;;;28.59;32.51
10897;BME280;5501;51.176;6.470;2023-06-24T13:28:52;101736.00;;;28.55;31.76
10897;BME280;5501;51.176;6.470;2023-06-24T13:33:55;101742.88;;;28.70;29.49
10897;BME280;5501;51.176;6.470;2023-06-24T13:38:57;101738.41;;;28.69;30.83
10897;BME280;5501;51.176;6.470;2023-06-24T13:44:02;101732.00;;;28.59;28.57
10897;BME280;5501;51.176;6.470;2023-06-24T13:49:04;101733.88;;;28.79;30.21
10897;BME280;5501;51.176;6.470;2023-06-24T13:54:07;101727.31;;;28.50;29.66
10897;BME280;5501;51.176;6.470;2023-06-24T13:59:08;101718.50;;;28.67;29.31
10897;BME280;5501;51.176;6.470;2023-06-24T14:04:11;101717.44;;;28.79;30.03
10897;BME280;5501;51.176;6.470;2023-06-24T14:09:13;101709.88;;;28.92;30.16
10897;BME280;5501;51.176;6.470;2023-06-24T14:14:15;101707.81;;;28.64;29.73
10897;BME280;5501;51.176;6.470;2023-06-24T14:19:16;101702.72;;;28.80;30.42
10897;BME280;5501;51.176;6.470;2023-06-24T14:24:18;101698.31;;;29.09;31.35
10897;BME280;5501;51.176;6.470;2023-06-24T14:29:19;101702.41;;;29.24;28.87
10897;BME280;5501;51.176;6.470;2023-06-24T14:34:21;101697.81;;;29.34;29.96
10897;BME280;5501;51.176;6.470;2023-06-24T14:39:22;101694.28;;;29.13;27.89
10897;BME280;5501;51.176;6.470;2023-06-24T14:44:24;101686.50;;;29.18;28.54
10897;BME280;5501;51.176;6.470;2023-06-24T14:49:25;101683.06;;;29.16;29.15
10897;BME280;5501;51.176;6.470;2023-06-24T14:54:27;101682.28;;;29.44;29.60
10897;BME280;5501;51.176;6.470;2023-06-24T14:59:29;101675.34;;;29.40;30.19
10897;BME280;5501;51.176;6.470;2023-06-24T15:04:30;101675.06;;;29.43;30.77
10897;BME280;5501;51.176;6.470;2023-06-24T15:09:32;101674.66;;;29.57;30.46
10897;BME280;5501;51.176;6.470;2023-06-24T15:14:34;101658.59;;;29.33;30.22
10897;BME280;5501;51.176;6.470;2023-06-24T15:19:36;101664.19;;;29.22;31.86
10897;BME280;5501;51.176;6.470;2023-06-24T15:24:37;101659.84;;;29.20;31.89
10897;BME280;5501;51.176;6.470;2023-06-24T15:29:39;101656.72;;;29.34;31.80
10897;BME280;5501;51.176;6.470;2023-06-24T15:34:41;101652.84;;;29.46;30.72
10897;BME280;5501;51.176;6.470;2023-06-24T15:39:42;101645.44;;;29.27;30.00
10897;BME280;5501;51.176;6.470;2023-06-24T15:44:44;101637.53;;;29.43;30.96
10897;BME280;5501;51.176;6.470;2023-06-24T15:49:45;101641.28;;;29.33;30.43
10897;BME280;5501;51.176;6.470;2023-06-24T15:54:47;101628.56;;;29.22;29.40
10897;BME280;5501;51.176;6.470;2023-06-24T15:59:48;101639.06;;;29.27;29.04
10897;BME280;5501;51.176;6.470;2023-06-24T16:04:50;101629.56;;;29.21;30.40
10897;BME280;5501;51.176;6.470;2023-06-24T16:09:51;101628.59;;;29.32;29.30
10897;BME280;5501;51.176;6.470;2023-06-24T16:14:53;101626.56;;;29.34;28.56
10897;BME280;5501;51.176;6.470;2023-06-24T16:19:55;101614.81;;;29.13;29.51
10897;BME280;5501;51.176;6.470;2023-06-24T16:24:56;101608.94;;;29.27;29.80
10897;BME280;5501;51.176;6.470;2023-06-24T16:29:58;101616.09;;;29.09;30.36
10897;BME280;5501;51.176;6.470;2023-06-24T16:34:59;101612.16;;;29.02;31.40
10897;BME280;5501;51.176;6.470;2023-06-24T16:40:01;101608.16;;;28.76;30.49
10897;BME280;5501;51.176;6.470;2023-06-24T16:45:03;101606.00;;;28.79;30.88
10897;BME280;5501;51.176;6.470;2023-06-24T16:50:05;101605.75;;;28.62;29.48
10897;BME280;5501;51.176;6.470;2023-06-24T16:55:07;101600.84;;;28.56;30.67
10897;BME280;5501;51.176;6.470;2023-06-24T17:00:09;101596.00;;;28.69;30.92
10897;BME280;5501;51.176;6.470;2023-06-24T17:05:11;101587.69;;;28.29;33.20
10897;BME280;5501;51.176;6.470;2023-06-24T17:10:14;101595.09;;;28.17;33.59
10897;BME280;5501;51.176;6.470;2023-06-24T17:15:16;101593.16;;;28.29;32.97
10897;BME280;5501;51.176;6.470;2023-06-24T17:20:17;101592.44;;;28.06;32.68
10897;BME280;5501;51.176;6.470;2023-06-24T17:25:19;101575.06;;;27.96;33.25
10897;BME280;5501;51.176;6.470;2023-06-24T17:30:21;101583.06;;;27.88;33.05
10897;BME280;5501;51.176;6.470;2023-06-24T17:35:22;101581.78;;;27.92;33.47
10897;BME280;5501;51.176;6.470;2023-06-24T17:40:24;101579.16;;;27.70;34.87
10897;BME280;5501;51.176;6.470;2023-06-24T17:45:26;101571.78;;;27.50;35.31
10897;BME280;5501;51.176;6.470;2023-06-24T17:50:32;101573.50;;;27.51;34.43
10897;BME280;5501;51.176;6.470;2023-06-24T17:55:34;101563.28;;;27.64;34.11
10897;BME280;5501;51.176;6.470;2023-06-24T18:00:38;101568.31;;;27.48;34.04
10897;BME280;5501;51.176;6.470;2023-06-24T18:05:42;101565.88;;;27.34;35.05
10897;BME280;5501;51.176;6.470;2023-06-24T18:10:44;101564.91;;;27.24;36.22
10897;BME280;5501;51.176;6.470;2023-06-24T18:15:45;101557.31;;;27.17;36.04
10897;BME280;5501;51.176;6.470;2023-06-24T18:20:47;101556.00;;;27.00;37.88
10897;BME280;5501;51.176;6.470;2023-06-24T18:25:48;101556.75;;;26.91;37.81
10897;BME280;5501;51.176;6.470;2023-06-24T18:30:50;101552.78;;;26.84;37.03
10897;BME280;5501;51.176;6.470;2023-06-24T18:35:52;101549.06;;;26.74;37.52
10897;BME280;5501;51.176;6.470;2023-06-24T18:40:53;101553.53;;;26.64;38.47
10897;BME280;5501;51.176;6.470;2023-06-24T18:45:55;101550.06;;;26.62;37.65
10897;BME280;5501;51.176;6.470;2023-06-24T18:50:56;101546.81;;;26.57;37.60
10897;BME280;5501;51.176;6.470;2023-06-24T18:55:58;101542.34;;;26.45;38.54
10897;BME280;5501;51.176;6.470;2023-06-24T19:00:59;101530.69;;;26.32;38.03
10897;BME280;5501;51.176;6.470;2023-06-24T19:06:01;101535.53;;;26.29;38.60
10897;BME280;5501;51.176;6.470;2023-06-24T19:11:03;101542.06;;;26.15;39.12
10897;BME280;5501;51.176;6.470;2023-06-24T19:16:04;101544.88;;;26.03;39.73
10897;BME280;5501;51.176;6.470;2023-06-24T19:21:06;101542.53;;;25.98;40.52
10897;BME280;5501;51.176;6.470;2023-06-24T19:26:07;101541.47;;;25.88;41.39
10897;BME280;5501;51.176;6.470;2023-06-24T19:31:09;101541.19;;;25.69;41.75
10897;BME280;5501;51.176;6.470;2023-06-24T19:36:11;101538.81;;;25.65;42.03
10897;BME280;5501;51.176;6.470;2023-06-24T19:41:12;101539.13;;;25.49;42.01
10897;BME280;5501;51.176;6.470;2023-06-24T19:46:15;101543.91;;;25.46;43.15
10897;BME280;5501;51.176;6.470;2023-06-24T19:51:28;101544.75;;;25.35;43.95
10897;BME280;5501;51.176;6.470;2023-06-24T19:56:33;101553.19;;;25.20;45.70
10897;BME280;5501;51.176;6.470;2023-06-24T20:01:34;101545.03;;;25.07;47.09
10897;BME280;5501;51.176;6.470;2023-06-24T20:06:36;101536.84;;;24.84;48.17
10897;BME280;5501;51.176;6.470;2023-06-24T20:11:37;101540.69;;;24.81;49.70
10897;BME280;5501;51.176;6.470;2023-06-24T20:16:39;101539.44;;;24.62;51.78
10897;BME280;5501;51.176;6.470;2023-06-24T20:21:40;101531.03;;;24.52;52.34
10897;BME280;5501;51.176;6.470;2023-06-24T20:26:42;101527.56;;;24.25;54.74
10897;BME280;5501;51.176;6.470;2023-06-24T20:31:43;101532.69;;;24.17;56.05
10897;BME280;5501;51.176;6.470;2023-06-24T20:36:45;101531.38;;;24.10;56.51
10897;BME280;5501;51.176;6.470;2023-06-24T20:41:46;101533.78;;;24.02;56.38
10897;BME280;5501;51.176;6.470;2023-06-24T20:46:48;101531.56;;;23.82;56.28
10897;BME280;5501;51.176;6.470;2023-06-24T20:51:50;101530.47;;;23.84;56.04
10897;BME280;5501;51.176;6.470;2023-06-24T20:56:52;101528.59;;;23.85;57.20
10897;BME280;5501;51.176;6.470;2023-06-24T21:01:53;101518.47;;;23.74;57.04
10897;BME280;5501;51.176;6.470;2023-06-24T21:06:55;101515.19;;;23.57;58.86
10897;BME280;5501;51.176;6.470;2023-06-24T21:11:56;101522.19;;;23.73;59.14
10897;BME280;5501;51.176;6.470;2023-06-24T21:16:58;101517.41;;;23.77;59.84
10897;BME280;5501;51.176;6.470;2023-06-24T21:21:59;101520.00;;;23.66;59.92
10897;BME280;5501;51.176;6.470;2023-06-24T21:27:01;101519.56;;;23.59;60.51
10897;BME280;5501;51.176;6.470;2023-06-24T21:32:04;101520.91;;;23.40;60.27
10897;BME280;5501;51.176;6.470;2023-06-24T21:37:06;101518.63;;;23.34;60.00
10897;BME280;5501;51.176;6.470;2023-06-24T21:42:07;101513.59;;;23.28;59.46
10897;BME280;5501;51.176;6.470;2023-06-24T21:47:09;101509.16;;;23.27;60.27
10897;BME280;5501;51.176;6.470;2023-06-24T21:52:10;101516.34;;;23.14;64.09
10897;BME280;5501;51.176;6.470;2023-06-24T21:57:12;101507.31;;;22.87;69.81
10897;BME280;5501;51.176;6.470;2023-06-24T22:02:13;101514.28;;;22.91;70.47
10897;BME280;5501;51.176;6.470;2023-06-24T22:07:15;101509.59;;;22.66;72.18
10897;BME280;5501;51.176;6.470;2023-06-24T22:12:17;101509.28;;;22.71;72.52
10897;BME280;5501;51.176;6.470;2023-06-24T22:17:18;101509.13;;;22.60;73.31
10897;BME280;5501;51.176;6.470;2023-06-24T22:22:21;101507.97;;;22.50;73.92
10897;BME280;5501;51.176;6.470;2023-06-24T22:27:23;101498.09;;;22.21;74.86
10897;BME280;5501;51.176;6.470;2023-06-24T22:32:24;101498.75;;;22.24;75.99
10897;BME280;5501;51.176;6.470;2023-06-24T22:37:26;101504.50;;;22.20;75.83
10897;BME280;5501;51.176;6.470;2023-06-24T22:42:28;101503.78;;;22.16;76.02
10897;BME280;5501;51.176;6.470;2023-06-24T22:47:29;101498.84;;;22.23;75.30
10897;BME280;5501;51.176;6.470;2023-06-24T22:52:31;101498.09;;;22.07;76.11
10897;BME280;5501;51.176;6.470;2023-06-24T22:57:32;101493.06;;;22.29;72.82
10897;BME280;5501;51.176;6.470;2023-06-24T23:02:34;101492.88;;;22.04;72.51
10897;BME280;5501;51.176;6.470;2023-06-24T23:07:36;101496.13;;;21.81;74.54
10897;BME280;5501;51.176;6.470;2023-06-24T23:12:38;101488.97;;;21.80;75.05
10897;BME280;5501;51.176;6.470;2023-06-24T23:17:40;101484.81;;;21.88;74.09
10897;BME280;5501;51.176;6.470;2023-06-24T23:22:42;101478.34;;;21.91;73.56
10897;BME280;5501;51.176;6.470;2023-06-24T23:27:44;101483.91;;;21.74;74.42
10897;BME280;5501;51.176;6.470;2023-06-24T23:32:46;101480.28;;;21.75;74.89
10897;BME280;5501;51.176;6.470;2023-06-24T23:37:47;101476.13;;;21.54;76.94
10897;BME280;5501;51.176;6.470;2023-06-24T23:42:49;101474.06;;;21.43;76.77
10897;BME280;5501;51.176;6.470;2023-06-24T23:47:51;101464.34;;;21.55;75.23
10897;BME280;5501;51.176;6.470;2023-06-24T23:52:53;101470.59;;;21.41;76.91
10897;BME280;5501;51.176;6.470;2023-06-24T23:57:55;101458.13;;;21.39;77.20
